COMO2: Grand River, Commerce, OK

                                SHEF ID:       COMO2     Neosho River nr Commerce, OK
STATION TYPE:
Regulating: Stage = 15.00, Flow = 21598

PRECIP STAGE STAGE(2) RIV-FLOW BAT-LOAD
in ft ft cfs volt
Ccp-Rev Ccp-Rev Ccp-Rev Ccp-Rev Ccp-Rev
(America/Chicago)
06/11 00:00 0.00 19.72 ---- 36912 12.33
06/11 01:00 0.00 19.69 ---- 36703 12.31
06/11 02:00 0.00 19.66 ---- 36495 12.30
06/11 03:00 0.00 19.62 ---- 36219 12.28
06/11 04:00 0.00 19.60 ---- 36082 12.27
06/11 05:00 0.00 19.56 ---- 35808 12.25
06/11 06:00 0.00 19.51 ---- 35468 12.24
06/11 07:00 0.00 19.46 ---- 35142 12.25
06/11 08:00 0.00 19.40 ---- 34758 12.51
06/11 09:00 0.00 19.36 ---- 34503 12.98
06/11 10:00 0.00 19.30 ---- 34123 13.03
06/11 11:00 0.00 19.24 ---- 33747 12.99
06/11 12:00 0.00 19.15 ---- 33187 12.77
06/11 13:00 0.00 19.08 ---- 32774 12.69
06/11 14:00 0.00 19.01 ---- 32388 12.66
06/11 15:00 0.00 18.94 ---- 32005 12.70
06/11 16:00 0.00 18.86 ---- 31571 12.73
06/11 17:00 0.00 18.78 ---- 31141 12.52
06/11 18:00 0.00 18.71 ---- 30768 12.60
06/11 19:00 0.03 18.61 ---- 30282 12.47
06/11 20:00 2.19 18.75 ---- 30981 12.37
06/11 21:00 0.01 18.76 ---- 31034 12.50
06/11 22:00 0.05 18.78 ---- 31141 12.36
06/11 23:00 0.00 18.82 ---- 31356 12.34
Data processed at Fri 12Jun2026 04:36 GMT

NOTICE: If you are parsing this page

Please convert to using our Data API. Starting early 2026 we will be migrating to: https://water.usace.army.mil with modern pages rendered in JavaScript. When this migration completes you will no longer be able to scrape this page! CWMSDataAPI (CDA)

Timeseries IDs (TSIDs)

TSIDs used from left to right in the data table
COMM.Precip-Inc.Total.1Hour.1Hour.Ccp-Rev
COMM.Stage.Inst.1Hour.0.Ccp-Rev
COMM.Stage-Alt.Inst.1Hour.0.Ccp-Rev
COMM.Flow.Inst.1Hour.0.Ccp-Rev
COMM.Volt-Battery Load.Inst.1Hour.0.Ccp-Rev

                            

All information presented herein is the property of the government of the United States of America and may be revised or deleted at any time without prior notice. Dissemination of this information without the expressed written consent of the Public Affairs Office, Tulsa District U.S. Army Corps of Engineers is strictly prohibited. These data are gathered electronically and, as presented, have NOT undergone any form of quality control. These data are NOT guaranteed to be valid or correct.